sensor_id;sensor_type;location;lat;lon;timestamp;P1;durP1;ratioP1;P2;durP2;ratioP2
74369;SDS011;71062;44.520;11.342;2023-07-24T00:00:44;22.13;;;12.48;;
74369;SDS011;71062;44.520;11.342;2023-07-24T00:03:09;20.38;;;11.65;;
74369;SDS011;71062;44.520;11.342;2023-07-24T00:05:35;22.80;;;12.25;;
74369;SDS011;71062;44.520;11.342;2023-07-24T00:08:01;19.30;;;11.35;;
74369;SDS011;71062;44.520;11.342;2023-07-24T00:10:27;21.10;;;10.93;;
74369;SDS011;71062;44.520;11.342;2023-07-24T00:12:52;21.55;;;12.20;;
74369;SDS011;71062;44.520;11.342;2023-07-24T00:15:18;22.08;;;11.32;;
74369;SDS011;71062;44.520;11.342;2023-07-24T00:17:44;21.27;;;11.20;;
74369;SDS011;71062;44.520;11.342;2023-07-24T00:20:09;23.08;;;11.57;;
74369;SDS011;71062;44.520;11.342;2023-07-24T00:22:35;19.90;;;11.90;;
74369;SDS011;71062;44.520;11.342;2023-07-24T00:25:01;21.38;;;11.00;;
74369;SDS011;71062;44.520;11.342;2023-07-24T00:27:27;22.98;;;11.40;;
74369;SDS011;71062;44.520;11.342;2023-07-24T00:29:52;22.45;;;11.55;;
74369;SDS011;71062;44.520;11.342;2023-07-24T00:32:18;22.20;;;11.55;;
74369;SDS011;71062;44.520;11.342;2023-07-24T00:34:44;22.02;;;11.52;;
74369;SDS011;71062;44.520;11.342;2023-07-24T00:37:12;23.90;;;12.10;;
74369;SDS011;71062;44.520;11.342;2023-07-24T00:39:37;22.80;;;11.48;;
74369;SDS011;71062;44.520;11.342;2023-07-24T00:42:03;23.95;;;12.07;;
74369;SDS011;71062;44.520;11.342;2023-07-24T00:44:29;21.48;;;11.18;;
74369;SDS011;71062;44.520;11.342;2023-07-24T00:46:54;21.80;;;11.02;;
74369;SDS011;71062;44.520;11.342;2023-07-24T00:49:20;22.70;;;11.85;;
74369;SDS011;71062;44.520;11.342;2023-07-24T00:51:46;20.83;;;10.43;;
74369;SDS011;71062;44.520;11.342;2023-07-24T00:54:12;27.08;;;11.55;;
74369;SDS011;71062;44.520;11.342;2023-07-24T00:56:42;20.92;;;10.77;;
74369;SDS011;71062;44.520;11.342;2023-07-24T00:59:10;25.13;;;12.45;;
74369;SDS011;71062;44.520;11.342;2023-07-24T01:01:37;20.85;;;11.13;;
74369;SDS011;71062;44.520;11.342;2023-07-24T01:04:05;22.55;;;11.25;;
74369;SDS011;71062;44.520;11.342;2023-07-24T01:06:32;20.38;;;10.50;;
74369;SDS011;71062;44.520;11.342;2023-07-24T01:08:58;25.02;;;11.15;;
74369;SDS011;71062;44.520;11.342;2023-07-24T01:11:27;21.42;;;10.68;;
74369;SDS011;71062;44.520;11.342;2023-07-24T01:14:41;22.55;;;11.43;;
74369;SDS011;71062;44.520;11.342;2023-07-24T01:16:49;23.08;;;11.43;;
74369;SDS011;71062;44.520;11.342;2023-07-24T01:19:19;20.15;;;10.18;;
74369;SDS011;71062;44.520;11.342;2023-07-24T01:22:21;22.15;;;11.18;;
74369;SDS011;71062;44.520;11.342;2023-07-24T01:27:31;21.45;;;11.38;;
74369;SDS011;71062;44.520;11.342;2023-07-24T01:29:58;22.58;;;11.63;;
74369;SDS011;71062;44.520;11.342;2023-07-24T01:32:23;22.10;;;11.23;;
74369;SDS011;71062;44.520;11.342;2023-07-24T01:34:50;22.48;;;10.57;;
74369;SDS011;71062;44.520;11.342;2023-07-24T01:37:16;21.00;;;11.15;;
74369;SDS011;71062;44.520;11.342;2023-07-24T01:39:45;23.35;;;12.50;;
74369;SDS011;71062;44.520;11.342;2023-07-24T01:42:12;21.85;;;11.75;;
74369;SDS011;71062;44.520;11.342;2023-07-24T01:44:39;21.45;;;10.57;;
74369;SDS011;71062;44.520;11.342;2023-07-24T01:47:05;22.08;;;10.40;;
74369;SDS011;71062;44.520;11.342;2023-07-24T01:49:30;24.40;;;11.35;;
74369;SDS011;71062;44.520;11.342;2023-07-24T01:51:56;20.77;;;11.20;;
74369;SDS011;71062;44.520;11.342;2023-07-24T01:54:23;22.33;;;11.23;;
74369;SDS011;71062;44.520;11.342;2023-07-24T01:56:48;21.27;;;10.52;;
74369;SDS011;71062;44.520;11.342;2023-07-24T01:59:14;20.00;;;10.32;;
74369;SDS011;71062;44.520;11.342;2023-07-24T02:01:42;24.67;;;11.70;;
74369;SDS011;71062;44.520;11.342;2023-07-24T02:04:08;20.98;;;10.45;;
74369;SDS011;71062;44.520;11.342;2023-07-24T02:06:34;23.73;;;10.55;;
74369;SDS011;71062;44.520;11.342;2023-07-24T02:08:59;20.98;;;10.50;;
74369;SDS011;71062;44.520;11.342;2023-07-24T02:11:25;22.23;;;11.20;;
74369;SDS011;71062;44.520;11.342;2023-07-24T02:13:51;21.90;;;11.63;;
74369;SDS011;71062;44.520;11.342;2023-07-24T02:16:17;22.17;;;11.32;;
74369;SDS011;71062;44.520;11.342;2023-07-24T02:18:42;19.85;;;10.63;;
74369;SDS011;71062;44.520;11.342;2023-07-24T02:21:08;21.60;;;11.00;;
74369;SDS011;71062;44.520;11.342;2023-07-24T02:23:35;21.95;;;11.90;;
74369;SDS011;71062;44.520;11.342;2023-07-24T02:26:01;22.05;;;11.43;;
74369;SDS011;71062;44.520;11.342;2023-07-24T02:28:26;23.05;;;11.10;;
74369;SDS011;71062;44.520;11.342;2023-07-24T02:30:52;21.80;;;11.07;;
74369;SDS011;71062;44.520;11.342;2023-07-24T02:33:21;21.05;;;10.55;;
74369;SDS011;71062;44.520;11.342;2023-07-24T02:35:49;21.42;;;11.07;;
74369;SDS011;71062;44.520;11.342;2023-07-24T02:38:16;22.55;;;11.30;;
74369;SDS011;71062;44.520;11.342;2023-07-24T02:40:43;21.45;;;10.13;;
74369;SDS011;71062;44.520;11.342;2023-07-24T02:43:09;19.45;;;10.75;;
74369;SDS011;71062;44.520;11.342;2023-07-24T02:45:35;20.13;;;10.27;;
74369;SDS011;71062;44.520;11.342;2023-07-24T02:48:02;20.98;;;10.68;;
74369;SDS011;71062;44.520;11.342;2023-07-24T02:50:28;21.65;;;11.13;;
74369;SDS011;71062;44.520;11.342;2023-07-24T02:52:54;20.85;;;11.13;;
74369;SDS011;71062;44.520;11.342;2023-07-24T02:55:20;17.48;;;9.73;;
74369;SDS011;71062;44.520;11.342;2023-07-24T02:57:45;20.52;;;10.82;;
74369;SDS011;71062;44.520;11.342;2023-07-24T03:00:11;22.17;;;11.38;;
74369;SDS011;71062;44.520;11.342;2023-07-24T03:02:37;19.52;;;10.18;;
74369;SDS011;71062;44.520;11.342;2023-07-24T03:05:03;20.58;;;10.43;;
74369;SDS011;71062;44.520;11.342;2023-07-24T03:07:29;21.55;;;10.57;;
74369;SDS011;71062;44.520;11.342;2023-07-24T03:09:55;21.05;;;10.80;;
74369;SDS011;71062;44.520;11.342;2023-07-24T03:12:20;20.45;;;10.98;;
74369;SDS011;71062;44.520;11.342;2023-07-24T03:14:46;19.30;;;10.32;;
74369;SDS011;71062;44.520;11.342;2023-07-24T03:17:13;23.65;;;11.05;;
74369;SDS011;71062;44.520;11.342;2023-07-24T03:19:38;21.40;;;10.60;;
74369;SDS011;71062;44.520;11.342;2023-07-24T03:22:05;21.52;;;9.93;;
74369;SDS011;71062;44.520;11.342;2023-07-24T03:24:31;19.25;;;9.90;;
74369;SDS011;71062;44.520;11.342;2023-07-24T03:26:57;20.83;;;9.70;;
74369;SDS011;71062;44.520;11.342;2023-07-24T03:29:22;18.67;;;10.38;;
74369;SDS011;71062;44.520;11.342;2023-07-24T03:31:48;20.48;;;10.77;;
74369;SDS011;71062;44.520;11.342;2023-07-24T03:34:16;17.23;;;9.75;;
74369;SDS011;71062;44.520;11.342;2023-07-24T03:36:42;17.45;;;9.60;;
74369;SDS011;71062;44.520;11.342;2023-07-24T03:39:09;21.42;;;10.85;;
74369;SDS011;71062;44.520;11.342;2023-07-24T03:41:36;20.17;;;10.40;;
74369;SDS011;71062;44.520;11.342;2023-07-24T03:44:02;19.25;;;10.07;;
74369;SDS011;71062;44.520;11.342;2023-07-24T03:46:27;23.70;;;10.05;;
74369;SDS011;71062;44.520;11.342;2023-07-24T03:49:06;19.15;;;10.05;;
74369;SDS011;71062;44.520;11.342;2023-07-24T03:51:31;21.80;;;10.52;;
74369;SDS011;71062;44.520;11.342;2023-07-24T03:53:58;17.60;;;10.20;;
74369;SDS011;71062;44.520;11.342;2023-07-24T03:56:24;20.92;;;10.00;;
74369;SDS011;71062;44.520;11.342;2023-07-24T03:58:49;17.98;;;9.63;;
74369;SDS011;71062;44.520;11.342;2023-07-24T04:01:15;19.50;;;10.77;;
74369;SDS011;71062;44.520;11.342;2023-07-24T04:03:41;21.58;;;10.85;;
74369;SDS011;71062;44.520;11.342;2023-07-24T04:06:06;17.13;;;9.68;;
74369;SDS011;71062;44.520;11.342;2023-07-24T04:08:32;20.65;;;10.45;;
74369;SDS011;71062;44.520;11.342;2023-07-24T04:10:58;21.98;;;10.57;;
74369;SDS011;71062;44.520;11.342;2023-07-24T04:13:23;19.92;;;9.65;;
74369;SDS011;71062;44.520;11.342;2023-07-24T04:15:49;17.50;;;9.77;;
74369;SDS011;71062;44.520;11.342;2023-07-24T04:18:15;20.88;;;10.90;;
74369;SDS011;71062;44.520;11.342;2023-07-24T04:20:41;21.13;;;10.93;;
74369;SDS011;71062;44.520;11.342;2023-07-24T04:23:07;23.83;;;10.60;;
74369;SDS011;71062;44.520;11.342;2023-07-24T04:25:32;21.17;;;11.02;;
74369;SDS011;71062;44.520;11.342;2023-07-24T04:27:58;19.00;;;9.55;;
74369;SDS011;71062;44.520;11.342;2023-07-24T04:30:23;18.17;;;9.63;;
74369;SDS011;71062;44.520;11.342;2023-07-24T04:32:49;22.45;;;10.25;;
74369;SDS011;71062;44.520;11.342;2023-07-24T04:35:15;18.83;;;9.70;;
74369;SDS011;71062;44.520;11.342;2023-07-24T04:37:41;22.70;;;10.48;;
74369;SDS011;71062;44.520;11.342;2023-07-24T04:40:07;21.48;;;10.10;;
74369;SDS011;71062;44.520;11.342;2023-07-24T04:42:33;23.65;;;11.45;;
74369;SDS011;71062;44.520;11.342;2023-07-24T04:44:58;19.15;;;9.95;;
74369;SDS011;71062;44.520;11.342;2023-07-24T04:47:24;20.02;;;9.55;;
74369;SDS011;71062;44.520;11.342;2023-07-24T04:49:53;18.65;;;9.77;;
74369;SDS011;71062;44.520;11.342;2023-07-24T04:52:20;20.63;;;10.85;;
74369;SDS011;71062;44.520;11.342;2023-07-24T04:54:46;22.27;;;10.35;;
74369;SDS011;71062;44.520;11.342;2023-07-24T04:57:11;22.33;;;9.35;;
74369;SDS011;71062;44.520;11.342;2023-07-24T04:59:37;19.80;;;9.05;;
74369;SDS011;71062;44.520;11.342;2023-07-24T05:02:03;18.90;;;9.82;;
74369;SDS011;71062;44.520;11.342;2023-07-24T05:04:28;20.13;;;10.30;;
74369;SDS011;71062;44.520;11.342;2023-07-24T05:06:54;21.90;;;9.98;;
74369;SDS011;71062;44.520;11.342;2023-07-24T05:09:20;21.45;;;10.15;;
74369;SDS011;71062;44.520;11.342;2023-07-24T05:11:46;18.63;;;9.45;;
74369;SDS011;71062;44.520;11.342;2023-07-24T05:14:11;21.13;;;9.32;;
74369;SDS011;71062;44.520;11.342;2023-07-24T05:16:37;19.65;;;8.88;;
74369;SDS011;71062;44.520;11.342;2023-07-24T05:19:03;20.90;;;9.95;;
74369;SDS011;71062;44.520;11.342;2023-07-24T05:21:28;17.42;;;8.73;;
74369;SDS011;71062;44.520;11.342;2023-07-24T05:23:54;20.98;;;10.50;;
74369;SDS011;71062;44.520;11.342;2023-07-24T05:26:20;43.00;;;11.43;;
74369;SDS011;71062;44.520;11.342;2023-07-24T05:28:47;22.08;;;10.50;;
74369;SDS011;71062;44.520;11.342;2023-07-24T05:31:13;24.83;;;10.98;;
74369;SDS011;71062;44.520;11.342;2023-07-24T05:33:39;22.73;;;10.60;;
74369;SDS011;71062;44.520;11.342;2023-07-24T05:36:07;28.55;;;10.93;;
74369;SDS011;71062;44.520;11.342;2023-07-24T05:38:33;21.13;;;9.52;;
74369;SDS011;71062;44.520;11.342;2023-07-24T05:41:00;21.63;;;10.68;;
74369;SDS011;71062;44.520;11.342;2023-07-24T05:43:28;23.55;;;10.85;;
74369;SDS011;71062;44.520;11.342;2023-07-24T05:45:54;21.92;;;9.68;;
74369;SDS011;71062;44.520;11.342;2023-07-24T05:48:21;21.73;;;10.18;;
74369;SDS011;71062;44.520;11.342;2023-07-24T05:50:48;21.98;;;9.80;;
74369;SDS011;71062;44.520;11.342;2023-07-24T05:53:14;20.52;;;9.52;;
74369;SDS011;71062;44.520;11.342;2023-07-24T05:55:41;21.38;;;11.13;;
74369;SDS011;71062;44.520;11.342;2023-07-24T05:58:08;24.23;;;10.70;;
74369;SDS011;71062;44.520;11.342;2023-07-24T06:00:34;24.25;;;10.85;;
74369;SDS011;71062;44.520;11.342;2023-07-24T06:03:00;22.33;;;10.52;;
74369;SDS011;71062;44.520;11.342;2023-07-24T06:05:26;21.50;;;10.50;;
74369;SDS011;71062;44.520;11.342;2023-07-24T06:07:52;23.08;;;10.55;;
74369;SDS011;71062;44.520;11.342;2023-07-24T06:10:17;20.73;;;9.50;;
74369;SDS011;71062;44.520;11.342;2023-07-24T06:12:43;18.92;;;9.85;;
74369;SDS011;71062;44.520;11.342;2023-07-24T06:15:09;20.27;;;10.23;;
74369;SDS011;71062;44.520;11.342;2023-07-24T06:17:35;20.75;;;9.55;;
74369;SDS011;71062;44.520;11.342;2023-07-24T06:20:00;20.75;;;9.00;;
74369;SDS011;71062;44.520;11.342;2023-07-24T06:22:26;19.05;;;9.98;;
74369;SDS011;71062;44.520;11.342;2023-07-24T06:24:51;18.58;;;8.77;;
74369;SDS011;71062;44.520;11.342;2023-07-24T06:27:17;21.67;;;10.52;;
74369;SDS011;71062;44.520;11.342;2023-07-24T06:29:42;29.02;;;10.93;;
74369;SDS011;71062;44.520;11.342;2023-07-24T06:32:08;20.00;;;9.90;;
74369;SDS011;71062;44.520;11.342;2023-07-24T06:34:34;19.77;;;9.80;;
74369;SDS011;71062;44.520;11.342;2023-07-24T06:37:00;21.77;;;10.25;;
74369;SDS011;71062;44.520;11.342;2023-07-24T06:39:26;22.00;;;10.23;;
74369;SDS011;71062;44.520;11.342;2023-07-24T06:41:54;23.23;;;10.45;;
74369;SDS011;71062;44.520;11.342;2023-07-24T06:44:20;21.00;;;10.98;;
74369;SDS011;71062;44.520;11.342;2023-07-24T06:46:46;19.10;;;9.93;;
74369;SDS011;71062;44.520;11.342;2023-07-24T06:49:12;21.00;;;10.23;;
74369;SDS011;71062;44.520;11.342;2023-07-24T06:51:38;20.10;;;10.65;;
74369;SDS011;71062;44.520;11.342;2023-07-24T06:54:04;19.23;;;9.35;;
74369;SDS011;71062;44.520;11.342;2023-07-24T07:10:11;27.90;;;10.40;;
74369;SDS011;71062;44.520;11.342;2023-07-24T07:16:02;30.65;;;10.75;;
74369;SDS011;71062;44.520;11.342;2023-07-24T07:18:54;22.35;;;9.85;;
74369;SDS011;71062;44.520;11.342;2023-07-24T07:21:20;17.00;;;9.40;;
74369;SDS011;71062;44.520;11.342;2023-07-24T07:23:48;23.75;;;10.07;;
74369;SDS011;71062;44.520;11.342;2023-07-24T07:26:30;22.88;;;8.43;;
74369;SDS011;71062;44.520;11.342;2023-07-24T07:28:59;16.88;;;8.75;;
74369;SDS011;71062;44.520;11.342;2023-07-24T07:31:24;19.23;;;8.63;;
74369;SDS011;71062;44.520;11.342;2023-07-24T07:34:09;16.83;;;8.15;;
74369;SDS011;71062;44.520;11.342;2023-07-24T07:39:53;15.43;;;8.35;;
74369;SDS011;71062;44.520;11.342;2023-07-24T07:46:21;16.63;;;8.65;;
74369;SDS011;71062;44.520;11.342;2023-07-24T07:49:01;16.83;;;8.98;;
74369;SDS011;71062;44.520;11.342;2023-07-24T08:04:57;17.70;;;8.45;;
74369;SDS011;71062;44.520;11.342;2023-07-24T08:11:45;18.15;;;8.55;;
74369;SDS011;71062;44.520;11.342;2023-07-24T08:48:14;15.88;;;8.15;;
74369;SDS011;71062;44.520;11.342;2023-07-24T09:18:26;23.05;;;12.18;;
74369;SDS011;71062;44.520;11.342;2023-07-24T09:31:02;23.45;;;11.82;;
74369;SDS011;71062;44.520;11.342;2023-07-24T09:33:37;23.63;;;12.32;;
74369;SDS011;71062;44.520;11.342;2023-07-24T09:36:05;19.55;;;10.88;;
74369;SDS011;71062;44.520;11.342;2023-07-24T09:38:43;22.27;;;11.18;;
74369;SDS011;71062;44.520;11.342;2023-07-24T09:41:12;20.60;;;11.98;;
74369;SDS011;71062;44.520;11.342;2023-07-24T09:43:41;24.65;;;12.65;;
74369;SDS011;71062;44.520;11.342;2023-07-24T09:46:09;21.38;;;11.48;;
74369;SDS011;71062;44.520;11.342;2023-07-24T09:48:35;23.00;;;11.45;;
74369;SDS011;71062;44.520;11.342;2023-07-24T09:51:02;22.48;;;11.45;;
74369;SDS011;71062;44.520;11.342;2023-07-24T09:53:38;20.92;;;11.90;;
74369;SDS011;71062;44.520;11.342;2023-07-24T09:56:09;20.73;;;11.25;;
74369;SDS011;71062;44.520;11.342;2023-07-24T09:58:36;24.98;;;12.07;;
74369;SDS011;71062;44.520;11.342;2023-07-24T10:01:04;19.23;;;10.93;;
74369;SDS011;71062;44.520;11.342;2023-07-24T10:03:37;21.00;;;11.38;;
74369;SDS011;71062;44.520;11.342;2023-07-24T10:06:04;17.85;;;10.93;;
74369;SDS011;71062;44.520;11.342;2023-07-24T10:08:30;21.55;;;11.98;;
74369;SDS011;71062;44.520;11.342;2023-07-24T10:10:59;18.75;;;9.88;;
74369;SDS011;71062;44.520;11.342;2023-07-24T10:13:31;20.67;;;12.55;;
74369;SDS011;71062;44.520;11.342;2023-07-24T10:16:02;24.77;;;13.05;;
74369;SDS011;71062;44.520;11.342;2023-07-24T10:18:31;23.08;;;12.35;;
74369;SDS011;71062;44.520;11.342;2023-07-24T11:41:46;18.30;;;11.27;;
74369;SDS011;71062;44.520;11.342;2023-07-24T11:44:12;22.83;;;12.10;;
74369;SDS011;71062;44.520;11.342;2023-07-24T11:46:41;22.00;;;13.93;;
74369;SDS011;71062;44.520;11.342;2023-07-24T11:49:08;24.23;;;14.45;;
74369;SDS011;71062;44.520;11.342;2023-07-24T11:51:36;22.33;;;13.10;;
74369;SDS011;71062;44.520;11.342;2023-07-24T11:54:08;18.70;;;12.98;;
74369;SDS011;71062;44.520;11.342;2023-07-24T11:56:36;18.33;;;12.77;;
74369;SDS011;71062;44.520;11.342;2023-07-24T11:59:14;23.20;;;13.85;;
74369;SDS011;71062;44.520;11.342;2023-07-24T12:01:40;20.88;;;13.30;;
74369;SDS011;71062;44.520;11.342;2023-07-24T12:04:06;20.90;;;13.15;;
74369;SDS011;71062;44.520;11.342;2023-07-24T12:06:32;20.05;;;13.00;;
74369;SDS011;71062;44.520;11.342;2023-07-24T12:09:04;19.42;;;12.98;;
74369;SDS011;71062;44.520;11.342;2023-07-24T12:11:31;17.77;;;12.45;;
74369;SDS011;71062;44.520;11.342;2023-07-24T12:13:57;20.00;;;12.98;;
74369;SDS011;71062;44.520;11.342;2023-07-24T12:16:22;19.75;;;13.05;;
74369;SDS011;71062;44.520;11.342;2023-07-24T12:18:48;21.75;;;12.93;;
74369;SDS011;71062;44.520;11.342;2023-07-24T12:21:13;18.48;;;11.60;;
74369;SDS011;71062;44.520;11.342;2023-07-24T12:23:39;19.63;;;12.23;;
74369;SDS011;71062;44.520;11.342;2023-07-24T12:26:04;24.20;;;11.48;;
74369;SDS011;71062;44.520;11.342;2023-07-24T12:28:30;19.50;;;10.80;;
74369;SDS011;71062;44.520;11.342;2023-07-24T12:30:55;20.83;;;10.98;;
74369;SDS011;71062;44.520;11.342;2023-07-24T12:33:21;19.27;;;10.85;;
74369;SDS011;71062;44.520;11.342;2023-07-24T12:35:51;17.42;;;11.35;;
74369;SDS011;71062;44.520;11.342;2023-07-24T12:38:18;20.25;;;10.85;;
74369;SDS011;71062;44.520;11.342;2023-07-24T12:40:43;16.40;;;10.00;;
74369;SDS011;71062;44.520;11.342;2023-07-24T12:43:09;21.58;;;11.07;;
74369;SDS011;71062;44.520;11.342;2023-07-24T12:45:35;18.88;;;11.05;;
74369;SDS011;71062;44.520;11.342;2023-07-24T12:48:00;17.45;;;11.55;;
74369;SDS011;71062;44.520;11.342;2023-07-24T12:50:26;20.60;;;12.25;;
74369;SDS011;71062;44.520;11.342;2023-07-24T12:52:51;20.08;;;12.60;;
74369;SDS011;71062;44.520;11.342;2023-07-24T12:55:17;19.95;;;11.50;;
74369;SDS011;71062;44.520;11.342;2023-07-24T12:57:43;18.70;;;11.57;;
74369;SDS011;71062;44.520;11.342;2023-07-24T13:00:09;18.45;;;11.60;;
74369;SDS011;71062;44.520;11.342;2023-07-24T13:02:35;18.27;;;11.43;;
74369;SDS011;71062;44.520;11.342;2023-07-24T13:05:01;17.17;;;10.88;;
74369;SDS011;71062;44.520;11.342;2023-07-24T13:07:26;16.95;;;10.75;;
74369;SDS011;71062;44.520;11.342;2023-07-24T13:09:54;22.70;;;10.68;;
74369;SDS011;71062;44.520;11.342;2023-07-24T13:12:19;19.35;;;11.68;;
74369;SDS011;71062;44.520;11.342;2023-07-24T13:14:45;21.48;;;11.25;;
74369;SDS011;71062;44.520;11.342;2023-07-24T13:17:11;21.45;;;11.10;;
74369;SDS011;71062;44.520;11.342;2023-07-24T13:19:37;19.90;;;10.85;;
74369;SDS011;71062;44.520;11.342;2023-07-24T13:22:02;21.35;;;10.13;;
74369;SDS011;71062;44.520;11.342;2023-07-24T13:24:28;18.75;;;9.20;;
74369;SDS011;71062;44.520;11.342;2023-07-24T13:26:54;19.55;;;9.68;;
74369;SDS011;71062;44.520;11.342;2023-07-24T13:29:20;18.55;;;10.82;;
74369;SDS011;71062;44.520;11.342;2023-07-24T13:31:45;17.92;;;9.88;;
74369;SDS011;71062;44.520;11.342;2023-07-24T13:34:11;17.38;;;9.63;;
74369;SDS011;71062;44.520;11.342;2023-07-24T13:36:37;17.20;;;9.65;;
74369;SDS011;71062;44.520;11.342;2023-07-24T13:39:02;22.20;;;9.50;;
74369;SDS011;71062;44.520;11.342;2023-07-24T13:41:28;18.13;;;9.90;;
74369;SDS011;71062;44.520;11.342;2023-07-24T13:43:53;18.00;;;9.70;;
74369;SDS011;71062;44.520;11.342;2023-07-24T13:46:19;18.02;;;8.75;;
74369;SDS011;71062;44.520;11.342;2023-07-24T13:48:44;18.42;;;9.73;;
74369;SDS011;71062;44.520;11.342;2023-07-24T13:51:10;20.13;;;10.25;;
74369;SDS011;71062;44.520;11.342;2023-07-24T13:53:36;16.98;;;9.20;;
74369;SDS011;71062;44.520;11.342;2023-07-24T13:56:02;14.75;;;8.95;;
74369;SDS011;71062;44.520;11.342;2023-07-24T14:00:53;17.25;;;9.10;;
74369;SDS011;71062;44.520;11.342;2023-07-24T14:03:19;20.65;;;9.00;;
74369;SDS011;71062;44.520;11.342;2023-07-24T14:05:44;23.13;;;10.13;;
74369;SDS011;71062;44.520;11.342;2023-07-24T14:08:10;18.98;;;9.18;;
74369;SDS011;71062;44.520;11.342;2023-07-24T14:10:36;20.73;;;9.80;;
74369;SDS011;71062;44.520;11.342;2023-07-24T14:13:02;18.92;;;9.60;;
74369;SDS011;71062;44.520;11.342;2023-07-24T14:15:28;20.33;;;9.77;;
74369;SDS011;71062;44.520;11.342;2023-07-24T14:17:55;19.90;;;9.52;;
74369;SDS011;71062;44.520;11.342;2023-07-24T14:20:20;17.42;;;8.88;;
74369;SDS011;71062;44.520;11.342;2023-07-24T14:22:46;18.52;;;9.25;;
74369;SDS011;71062;44.520;11.342;2023-07-24T14:25:11;15.38;;;8.45;;
74369;SDS011;71062;44.520;11.342;2023-07-24T14:27:37;20.83;;;9.70;;
74369;SDS011;71062;44.520;11.342;2023-07-24T14:30:03;23.10;;;9.63;;
74369;SDS011;71062;44.520;11.342;2023-07-24T14:34:55;18.15;;;9.77;;
74369;SDS011;71062;44.520;11.342;2023-07-24T14:37:21;18.65;;;8.88;;
74369;SDS011;71062;44.520;11.342;2023-07-24T14:39:46;18.25;;;8.45;;
74369;SDS011;71062;44.520;11.342;2023-07-24T14:42:12;18.88;;;7.78;;
74369;SDS011;71062;44.520;11.342;2023-07-24T14:44:38;21.80;;;9.07;;
74369;SDS011;71062;44.520;11.342;2023-07-24T14:47:04;17.42;;;8.68;;
74369;SDS011;71062;44.520;11.342;2023-07-24T14:49:29;15.75;;;7.80;;
74369;SDS011;71062;44.520;11.342;2023-07-24T14:51:55;16.48;;;7.57;;
74369;SDS011;71062;44.520;11.342;2023-07-24T14:54:20;16.30;;;8.75;;
74369;SDS011;71062;44.520;11.342;2023-07-24T14:56:46;19.55;;;8.25;;
74369;SDS011;71062;44.520;11.342;2023-07-24T14:59:11;22.92;;;8.63;;
74369;SDS011;71062;44.520;11.342;2023-07-24T15:01:37;17.85;;;7.93;;
74369;SDS011;71062;44.520;11.342;2023-07-24T15:04:03;16.67;;;8.13;;
74369;SDS011;71062;44.520;11.342;2023-07-24T15:06:28;16.60;;;8.00;;
74369;SDS011;71062;44.520;11.342;2023-07-24T15:08:54;20.90;;;7.85;;
74369;SDS011;71062;44.520;11.342;2023-07-24T15:11:22;15.73;;;7.68;;
74369;SDS011;71062;44.520;11.342;2023-07-24T15:13:57;16.58;;;7.82;;
74369;SDS011;71062;44.520;11.342;2023-07-24T15:16:22;17.13;;;7.88;;
74369;SDS011;71062;44.520;11.342;2023-07-24T15:18:48;14.90;;;7.53;;
74369;SDS011;71062;44.520;11.342;2023-07-24T15:21:13;17.83;;;7.72;;
74369;SDS011;71062;44.520;11.342;2023-07-24T15:23:39;17.52;;;8.10;;
74369;SDS011;71062;44.520;11.342;2023-07-24T15:26:05;17.88;;;7.55;;
74369;SDS011;71062;44.520;11.342;2023-07-24T15:28:30;13.68;;;7.38;;
74369;SDS011;71062;44.520;11.342;2023-07-24T15:30:56;16.77;;;7.90;;
74369;SDS011;71062;44.520;11.342;2023-07-24T15:33:21;19.20;;;8.80;;
74369;SDS011;71062;44.520;11.342;2023-07-24T15:35:47;14.63;;;7.28;;
74369;SDS011;71062;44.520;11.342;2023-07-24T15:38:15;17.52;;;8.10;;
74369;SDS011;71062;44.520;11.342;2023-07-24T15:40:40;19.70;;;7.38;;
74369;SDS011;71062;44.520;11.342;2023-07-24T15:43:06;16.77;;;7.80;;
74369;SDS011;71062;44.520;11.342;2023-07-24T15:45:32;18.05;;;7.82;;
74369;SDS011;71062;44.520;11.342;2023-07-24T15:47:57;14.25;;;7.50;;
74369;SDS011;71062;44.520;11.342;2023-07-24T15:50:23;15.77;;;7.68;;
74369;SDS011;71062;44.520;11.342;2023-07-24T15:52:49;16.63;;;8.23;;
74369;SDS011;71062;44.520;11.342;2023-07-24T15:55:15;18.67;;;9.02;;
74369;SDS011;71062;44.520;11.342;2023-07-24T15:57:40;16.92;;;8.45;;
74369;SDS011;71062;44.520;11.342;2023-07-24T16:00:06;15.40;;;7.60;;
74369;SDS011;71062;44.520;11.342;2023-07-24T16:02:33;17.33;;;7.78;;
74369;SDS011;71062;44.520;11.342;2023-07-24T16:04:59;17.75;;;8.43;;
74369;SDS011;71062;44.520;11.342;2023-07-24T16:07:27;19.20;;;7.63;;
74369;SDS011;71062;44.520;11.342;2023-07-24T16:09:53;18.20;;;8.73;;
74369;SDS011;71062;44.520;11.342;2023-07-24T16:12:19;15.90;;;7.55;;
74369;SDS011;71062;44.520;11.342;2023-07-24T16:14:44;18.58;;;8.18;;
74369;SDS011;71062;44.520;11.342;2023-07-24T16:17:10;20.17;;;9.27;;
74369;SDS011;71062;44.520;11.342;2023-07-24T16:19:35;17.42;;;8.82;;
74369;SDS011;71062;44.520;11.342;2023-07-24T16:22:02;18.10;;;8.43;;
74369;SDS011;71062;44.520;11.342;2023-07-24T16:24:28;15.95;;;8.50;;
74369;SDS011;71062;44.520;11.342;2023-07-24T16:26:54;16.75;;;8.25;;
74369;SDS011;71062;44.520;11.342;2023-07-24T16:29:20;14.18;;;8.27;;
74369;SDS011;71062;44.520;11.342;2023-07-24T16:31:45;12.68;;;7.60;;
74369;SDS011;71062;44.520;11.342;2023-07-24T16:34:11;18.13;;;7.90;;
74369;SDS011;71062;44.520;11.342;2023-07-24T16:36:37;20.30;;;7.97;;
74369;SDS011;71062;44.520;11.342;2023-07-24T16:39:03;15.40;;;7.80;;
74369;SDS011;71062;44.520;11.342;2023-07-24T16:41:30;18.85;;;7.72;;
74369;SDS011;71062;44.520;11.342;2023-07-24T16:43:56;14.80;;;7.43;;
74369;SDS011;71062;44.520;11.342;2023-07-24T16:46:22;17.67;;;7.45;;
74369;SDS011;71062;44.520;11.342;2023-07-24T16:48:48;15.90;;;7.50;;
74369;SDS011;71062;44.520;11.342;2023-07-24T16:51:14;17.27;;;7.93;;
74369;SDS011;71062;44.520;11.342;2023-07-24T16:56:05;16.83;;;7.45;;
74369;SDS011;71062;44.520;11.342;2023-07-24T16:58:31;21.50;;;7.68;;
74369;SDS011;71062;44.520;11.342;2023-07-24T17:00:56;17.17;;;8.18;;
74369;SDS011;71062;44.520;11.342;2023-07-24T17:03:22;17.15;;;7.95;;
74369;SDS011;71062;44.520;11.342;2023-07-24T17:05:48;19.85;;;7.88;;
74369;SDS011;71062;44.520;11.342;2023-07-24T17:08:13;17.52;;;8.02;;
74369;SDS011;71062;44.520;11.342;2023-07-24T17:10:41;15.50;;;8.45;;
74369;SDS011;71062;44.520;11.342;2023-07-24T17:13:08;12.95;;;6.65;;
74369;SDS011;71062;44.520;11.342;2023-07-24T17:15:34;15.50;;;7.40;;
74369;SDS011;71062;44.520;11.342;2023-07-24T17:17:59;15.07;;;7.60;;
74369;SDS011;71062;44.520;11.342;2023-07-24T17:20:25;20.52;;;8.88;;
74369;SDS011;71062;44.520;11.342;2023-07-24T17:22:50;15.50;;;7.90;;
74369;SDS011;71062;44.520;11.342;2023-07-24T17:25:16;20.25;;;8.63;;
74369;SDS011;71062;44.520;11.342;2023-07-24T17:27:41;16.10;;;8.57;;
74369;SDS011;71062;44.520;11.342;2023-07-24T17:30:07;17.13;;;8.45;;
74369;SDS011;71062;44.520;11.342;2023-07-24T17:32:33;19.15;;;8.35;;
74369;SDS011;71062;44.520;11.342;2023-07-24T17:35:17;15.88;;;7.78;;